sensor_id;sensor_type;location;lat;lon;timestamp;pressure;altitude;pressure_sealevel;temperature;humidity
40920;BME280;26652;50.280;19.026;2022-09-21T00:00:26;98739.12;;;11.52;100.00
40920;BME280;26652;50.280;19.026;2022-09-21T00:02:57;98738.09;;;11.46;100.00
40920;BME280;26652;50.280;19.026;2022-09-21T00:05:19;98731.00;;;11.41;100.00
40920;BME280;26652;50.280;19.026;2022-09-21T00:08:00;98724.72;;;11.44;100.00
40920;BME280;26652;50.280;19.026;2022-09-21T00:10:20;98731.88;;;11.34;100.00
40920;BME280;26652;50.280;19.026;2022-09-21T00:12:54;98728.28;;;11.43;100.00
40920;BME280;26652;50.280;19.026;2022-09-21T00:15:06;98726.91;;;11.18;100.00
40920;BME280;26652;50.280;19.026;2022-09-21T00:17:37;98728.78;;;11.24;100.00
40920;BME280;26652;50.280;19.026;2022-09-21T00:19:59;98726.16;;;11.32;100.00
40920;BME280;26652;50.280;19.026;2022-09-21T00:22:41;98723.25;;;11.35;100.00
40920;BME280;26652;50.280;19.026;2022-09-21T00:24:58;98728.50;;;11.19;100.00
40920;BME280;26652;50.280;19.026;2022-09-21T00:27:24;98729.13;;;11.21;100.00
40920;BME280;26652;50.280;19.026;2022-09-21T00:30:04;98728.50;;;11.19;100.00
40920;BME280;26652;50.280;19.026;2022-09-21T00:32:16;98726.47;;;11.14;100.00
40920;BME280;26652;50.280;19.026;2022-09-21T00:34:35;98733.41;;;11.05;100.00
40920;BME280;26652;50.280;19.026;2022-09-21T00:37:01;98738.50;;;11.05;100.00
40920;BME280;26652;50.280;19.026;2022-09-21T00:39:22;98732.88;;;11.10;100.00
40920;BME280;26652;50.280;19.026;2022-09-21T00:41:54;98729.50;;;10.95;100.00
40920;BME280;26652;50.280;19.026;2022-09-21T00:44:27;98737.31;;;10.93;100.00
40920;BME280;26652;50.280;19.026;2022-09-21T00:46:48;98737.16;;;10.95;100.00
40920;BME280;26652;50.280;19.026;2022-09-21T00:49:09;98738.13;;;10.94;100.00
40920;BME280;26652;50.280;19.026;2022-09-21T00:51:41;98744.63;;;10.96;100.00
40920;BME280;26652;50.280;19.026;2022-09-21T00:54:04;98741.28;;;10.96;100.00
40920;BME280;26652;50.280;19.026;2022-09-21T00:56:28;98741.44;;;10.94;100.00
40920;BME280;26652;50.280;19.026;2022-09-21T00:58:57;98745.88;;;11.00;100.00
40920;BME280;26652;50.280;19.026;2022-09-21T01:01:06;98743.81;;;10.96;100.00
40920;BME280;26652;50.280;19.026;2022-09-21T01:03:30;98746.13;;;11.05;100.00
40920;BME280;26652;50.280;19.026;2022-09-21T01:06:02;98745.09;;;11.14;100.00
40920;BME280;26652;50.280;19.026;2022-09-21T01:08:38;98754.06;;;11.10;100.00
40920;BME280;26652;50.280;19.026;2022-09-21T01:11:25;98757.75;;;11.08;100.00
40920;BME280;26652;50.280;19.026;2022-09-21T01:20:21;98748.78;;;11.12;100.00
40920;BME280;26652;50.280;19.026;2022-09-21T01:25:37;98753.88;;;11.12;100.00
40920;BME280;26652;50.280;19.026;2022-09-21T01:30:51;98761.69;;;11.10;100.00
40920;BME280;26652;50.280;19.026;2022-09-21T01:33:38;98762.38;;;11.04;100.00
40920;BME280;26652;50.280;19.026;2022-09-21T01:36:00;98754.84;;;11.11;100.00
40920;BME280;26652;50.280;19.026;2022-09-21T01:38:44;98754.84;;;11.11;100.00
40920;BME280;26652;50.280;19.026;2022-09-21T01:41:09;98757.50;;;11.18;100.00
40920;BME280;26652;50.280;19.026;2022-09-21T01:43:46;98758.91;;;11.20;100.00
40920;BME280;26652;50.280;19.026;2022-09-21T01:45:59;98751.16;;;11.13;100.00
40920;BME280;26652;50.280;19.026;2022-09-21T01:48:33;98758.53;;;11.08;100.00
40920;BME280;26652;50.280;19.026;2022-09-21T01:50:55;98755.62;;;11.11;100.00
40920;BME280;26652;50.280;19.026;2022-09-21T01:53:20;98757.75;;;11.08;100.00
40920;BME280;26652;50.280;19.026;2022-09-21T01:56:05;98761.88;;;11.09;100.00
40920;BME280;26652;50.280;19.026;2022-09-21T01:58:32;98764.75;;;11.06;100.00
40920;BME280;26652;50.280;19.026;2022-09-21T02:00:47;98762.84;;;11.08;100.00
40920;BME280;26652;50.280;19.026;2022-09-21T02:03:03;98767.13;;;11.07;100.00
40920;BME280;26652;50.280;19.026;2022-09-21T02:05:10;98769.50;;;11.09;100.00
40920;BME280;26652;50.280;19.026;2022-09-21T02:07:21;98770.47;;;11.08;100.00
40920;BME280;26652;50.280;19.026;2022-09-21T02:09:30;98764.31;;;11.02;100.00
40920;BME280;26652;50.280;19.026;2022-09-21T02:11:37;98770.25;;;10.95;100.00
40920;BME280;26652;50.280;19.026;2022-09-21T02:13:52;98765.44;;;11.00;100.00
40920;BME280;26652;50.280;19.026;2022-09-21T02:16:23;98774.31;;;11.04;100.00
40920;BME280;26652;50.280;19.026;2022-09-21T02:21:07;98778.00;;;11.01;100.00
40920;BME280;26652;50.280;19.026;2022-09-21T02:23:25;98775.75;;;11.06;100.00
40920;BME280;26652;50.280;19.026;2022-09-21T02:25:51;98779.81;;;10.93;100.00
40920;BME280;26652;50.280;19.026;2022-09-21T02:30:37;98775.69;;;10.92;100.00
40920;BME280;26652;50.280;19.026;2022-09-21T02:35:52;98776.34;;;11.08;100.00
40920;BME280;26652;50.280;19.026;2022-09-21T02:40:42;98771.09;;;11.10;100.00
40920;BME280;26652;50.280;19.026;2022-09-21T02:42:55;98778.91;;;11.08;100.00
40920;BME280;26652;50.280;19.026;2022-09-21T02:45:18;98777.09;;;11.17;100.00
40920;BME280;26652;50.280;19.026;2022-09-21T02:47:38;98780.16;;;11.12;100.00
40920;BME280;26652;50.280;19.026;2022-09-21T02:49:53;98781.63;;;11.07;100.00
40920;BME280;26652;50.280;19.026;2022-09-21T02:52:07;98788.19;;;11.01;100.00
40920;BME280;26652;50.280;19.026;2022-09-21T02:54:26;98779.06;;;11.07;100.00
40920;BME280;26652;50.280;19.026;2022-09-21T02:56:37;98785.12;;;11.06;100.00
40920;BME280;26652;50.280;19.026;2022-09-21T02:58:48;98791.53;;;11.02;100.00
40920;BME280;26652;50.280;19.026;2022-09-21T03:01:01;98793.12;;;11.03;100.00
40920;BME280;26652;50.280;19.026;2022-09-21T03:03:22;98792.44;;;11.09;100.00
40920;BME280;26652;50.280;19.026;2022-09-21T03:05:29;98802.97;;;11.06;100.00
40920;BME280;26652;50.280;19.026;2022-09-21T03:07:40;98813.66;;;11.01;100.00
40920;BME280;26652;50.280;19.026;2022-09-21T03:09:46;98806.81;;;11.02;100.00
40920;BME280;26652;50.280;19.026;2022-09-21T03:12:03;98813.56;;;10.95;100.00
40920;BME280;26652;50.280;19.026;2022-09-21T03:14:12;98798.03;;;10.81;100.00
40920;BME280;26652;50.280;19.026;2022-09-21T03:16:23;98809.94;;;10.89;100.00
40920;BME280;26652;50.280;19.026;2022-09-21T03:18:47;98818.38;;;10.90;100.00
40920;BME280;26652;50.280;19.026;2022-09-21T03:21:00;98817.13;;;10.86;100.00
40920;BME280;26652;50.280;19.026;2022-09-21T03:23:06;98817.22;;;10.92;100.00
40920;BME280;26652;50.280;19.026;2022-09-21T03:25:16;98813.50;;;10.80;100.00
40920;BME280;26652;50.280;19.026;2022-09-21T03:27:34;98813.50;;;10.80;100.00
40920;BME280;26652;50.280;19.026;2022-09-21T03:29:47;98815.97;;;10.88;100.00
40920;BME280;26652;50.280;19.026;2022-09-21T03:32:03;98829.69;;;10.87;100.00
40920;BME280;26652;50.280;19.026;2022-09-21T03:34:16;98821.69;;;10.90;100.00
40920;BME280;26652;50.280;19.026;2022-09-21T03:36:24;98829.50;;;10.89;100.00
40920;BME280;26652;50.280;19.026;2022-09-21T03:38:33;98829.06;;;10.85;100.00
40920;BME280;26652;50.280;19.026;2022-09-21T03:40:47;98840.88;;;10.78;100.00
40920;BME280;26652;50.280;19.026;2022-09-21T03:42:53;98836.34;;;10.65;100.00
40920;BME280;26652;50.280;19.026;2022-09-21T03:45:03;98837.75;;;10.68;100.00
40920;BME280;26652;50.280;19.026;2022-09-21T03:47:15;98843.75;;;10.75;100.00
40920;BME280;26652;50.280;19.026;2022-09-21T03:49:24;98844.63;;;10.59;100.00
40920;BME280;26652;50.280;19.026;2022-09-21T03:51:39;98839.66;;;10.66;100.00
40920;BME280;26652;50.280;19.026;2022-09-21T03:53:52;98842.22;;;10.66;100.00
40920;BME280;26652;50.280;19.026;2022-09-21T03:56:00;98838.03;;;10.73;100.00
40920;BME280;26652;50.280;19.026;2022-09-21T03:58:06;98839.28;;;10.77;100.00
40920;BME280;26652;50.280;19.026;2022-09-21T04:00:17;98847.38;;;10.80;100.00
40920;BME280;26652;50.280;19.026;2022-09-21T04:02:23;98836.34;;;10.65;100.00
40920;BME280;26652;50.280;19.026;2022-09-21T04:04:36;98837.13;;;10.66;100.00
40920;BME280;26652;50.280;19.026;2022-09-21T04:06:47;98836.84;;;10.61;100.00
40920;BME280;26652;50.280;19.026;2022-09-21T04:08:59;98834.59;;;10.66;100.00
40920;BME280;26652;50.280;19.026;2022-09-21T04:11:17;98834.25;;;10.69;100.00
40920;BME280;26652;50.280;19.026;2022-09-21T04:13:52;98841.56;;;10.72;100.00
40920;BME280;26652;50.280;19.026;2022-09-21T04:16:06;98831.16;;;10.81;100.00
40920;BME280;26652;50.280;19.026;2022-09-21T04:18:18;98838.78;;;10.81;100.00
40920;BME280;26652;50.280;19.026;2022-09-21T04:20:44;98830.56;;;10.71;100.00
40920;BME280;26652;50.280;19.026;2022-09-21T04:23:22;98843.22;;;10.88;100.00
40920;BME280;26652;50.280;19.026;2022-09-21T04:25:38;98848.13;;;10.89;100.00
40920;BME280;26652;50.280;19.026;2022-09-21T04:27:51;98844.97;;;10.87;100.00
40920;BME280;26652;50.280;19.026;2022-09-21T04:30:16;98844.50;;;10.84;100.00
40920;BME280;26652;50.280;19.026;2022-09-21T04:32:39;98841.50;;;10.80;100.00
40920;BME280;26652;50.280;19.026;2022-09-21T04:35:14;98828.03;;;10.71;100.00
40920;BME280;26652;50.280;19.026;2022-09-21T04:37:31;98844.56;;;10.75;100.00
40920;BME280;26652;50.280;19.026;2022-09-21T04:39:47;98840.25;;;10.76;100.00
40920;BME280;26652;50.280;19.026;2022-09-21T04:42:10;98844.56;;;10.75;100.00
40920;BME280;26652;50.280;19.026;2022-09-21T04:44:33;98842.81;;;10.76;100.00
40920;BME280;26652;50.280;19.026;2022-09-21T04:46:57;98849.66;;;10.75;100.00
40920;BME280;26652;50.280;19.026;2022-09-21T04:49:20;98854.56;;;10.77;100.00
40920;BME280;26652;50.280;19.026;2022-09-21T04:51:47;98847.56;;;10.79;100.00
40920;BME280;26652;50.280;19.026;2022-09-21T04:54:09;98842.91;;;10.82;100.00
40920;BME280;26652;50.280;19.026;2022-09-21T04:56:41;98852.94;;;10.84;100.00
40920;BME280;26652;50.280;19.026;2022-09-21T04:59:03;98859.28;;;10.88;100.00
40920;BME280;26652;50.280;19.026;2022-09-21T05:01:15;98853.72;;;10.85;100.00
40920;BME280;26652;50.280;19.026;2022-09-21T05:03:51;98857.41;;;10.82;100.00
40920;BME280;26652;50.280;19.026;2022-09-21T05:06:16;98855.88;;;10.73;100.00
40920;BME280;26652;50.280;19.026;2022-09-21T05:08:39;98856.03;;;10.71;100.00
40920;BME280;26652;50.280;19.026;2022-09-21T05:11:06;98858.75;;;10.70;100.00
40920;BME280;26652;50.280;19.026;2022-09-21T05:13:20;98860.84;;;10.66;100.00
40920;BME280;26652;50.280;19.026;2022-09-21T05:15:31;98856.38;;;10.68;100.00
40920;BME280;26652;50.280;19.026;2022-09-21T05:18:12;98860.91;;;10.81;100.00
40920;BME280;26652;50.280;19.026;2022-09-21T05:20:24;98862.91;;;10.63;100.00
40920;BME280;26652;50.280;19.026;2022-09-21T05:22:36;98859.06;;;10.67;100.00
40920;BME280;26652;50.280;19.026;2022-09-21T05:24:59;98861.47;;;10.68;100.00
40920;BME280;26652;50.280;19.026;2022-09-21T05:27:35;98867.63;;;10.74;100.00
40920;BME280;26652;50.280;19.026;2022-09-21T05:29:47;98877.03;;;10.73;100.00
40920;BME280;26652;50.280;19.026;2022-09-21T05:32:19;98861.28;;;10.70;100.00
40920;BME280;26652;50.280;19.026;2022-09-21T05:35:09;98876.56;;;10.70;100.00
40920;BME280;26652;50.280;19.026;2022-09-21T05:37:44;98881.91;;;10.83;100.00
40920;BME280;26652;50.280;19.026;2022-09-21T05:40:14;98878.78;;;10.73;100.00
40920;BME280;26652;50.280;19.026;2022-09-21T05:42:29;98890.16;;;10.85;100.00
40920;BME280;26652;50.280;19.026;2022-09-21T05:44:36;98880.37;;;10.74;100.00
40920;BME280;26652;50.280;19.026;2022-09-21T05:47:09;98890.34;;;10.84;100.00
40920;BME280;26652;50.280;19.026;2022-09-21T05:49:45;98880.19;;;10.75;100.00
40920;BME280;26652;50.280;19.026;2022-09-21T05:57:36;98884.25;;;10.93;100.00
40920;BME280;26652;50.280;19.026;2022-09-21T06:00:15;98887.66;;;10.77;100.00
40920;BME280;26652;50.280;19.026;2022-09-21T06:04:54;98888.91;;;10.81;100.00
40920;BME280;26652;50.280;19.026;2022-09-21T06:07:00;98888.91;;;10.81;100.00
40920;BME280;26652;50.280;19.026;2022-09-21T06:09:13;98889.22;;;10.86;100.00
40920;BME280;26652;50.280;19.026;2022-09-21T06:11:33;98892.72;;;10.85;100.00
40920;BME280;26652;50.280;19.026;2022-09-21T06:13:42;98891.38;;;10.97;100.00
40920;BME280;26652;50.280;19.026;2022-09-21T06:16:03;98900.31;;;10.93;100.00
40920;BME280;26652;50.280;19.026;2022-09-21T06:18:09;98896.69;;;10.88;100.00
40920;BME280;26652;50.280;19.026;2022-09-21T06:20:21;98893.81;;;10.91;100.00
40920;BME280;26652;50.280;19.026;2022-09-21T06:22:38;98894.09;;;10.96;100.00
40920;BME280;26652;50.280;19.026;2022-09-21T06:24:47;98885.00;;;11.01;100.00
40920;BME280;26652;50.280;19.026;2022-09-21T06:26:55;98891.66;;;11.02;100.00
40920;BME280;26652;50.280;19.026;2022-09-21T06:29:17;98888.94;;;11.04;100.00
40920;BME280;26652;50.280;19.026;2022-09-21T06:31:27;98889.28;;;11.01;100.00
40920;BME280;26652;50.280;19.026;2022-09-21T06:33:41;98890.13;;;10.93;100.00
40920;BME280;26652;50.280;19.026;2022-09-21T06:35:59;98882.50;;;10.93;100.00
40920;BME280;26652;50.280;19.026;2022-09-21T06:38:13;98894.38;;;11.01;100.00
40920;BME280;26652;50.280;19.026;2022-09-21T06:40:22;98885.78;;;11.02;100.00
40920;BME280;26652;50.280;19.026;2022-09-21T06:42:37;98885.28;;;11.06;100.00
40920;BME280;26652;50.280;19.026;2022-09-21T06:44:46;98898.63;;;11.08;100.00
40920;BME280;26652;50.280;19.026;2022-09-21T06:47:00;98900.28;;;11.01;100.00
40920;BME280;26652;50.280;19.026;2022-09-21T06:49:12;98906.78;;;11.04;100.00
40920;BME280;26652;50.280;19.026;2022-09-21T06:51:20;98911.31;;;11.17;100.00
40920;BME280;26652;50.280;19.026;2022-09-21T06:53:30;98917.09;;;11.10;100.00
40920;BME280;26652;50.280;19.026;2022-09-21T06:55:39;98912.47;;;11.14;100.00
40920;BME280;26652;50.280;19.026;2022-09-21T06:57:51;98916.59;;;11.15;100.00
40920;BME280;26652;50.280;19.026;2022-09-21T06:59:59;98909.50;;;11.25;100.00
40920;BME280;26652;50.280;19.026;2022-09-21T07:02:09;98910.53;;;11.39;100.00
40920;BME280;26652;50.280;19.026;2022-09-21T07:04:21;98924.25;;;11.38;100.00
40920;BME280;26652;50.280;19.026;2022-09-21T07:06:32;98927.81;;;11.29;100.00
40920;BME280;26652;50.280;19.026;2022-09-21T07:08:54;98926.84;;;11.30;100.00
40920;BME280;26652;50.280;19.026;2022-09-21T07:11:03;98929.56;;;11.28;100.00
40920;BME280;26652;50.280;19.026;2022-09-21T07:13:12;98928.16;;;11.26;100.00
40920;BME280;26652;50.280;19.026;2022-09-21T07:15:24;98939.47;;;11.23;100.00
40920;BME280;26652;50.280;19.026;2022-09-21T07:17:33;98936.91;;;11.23;100.00
40920;BME280;26652;50.280;19.026;2022-09-21T07:19:39;98940.59;;;11.21;100.00
40920;BME280;26652;50.280;19.026;2022-09-21T07:21:52;98933.97;;;11.34;100.00
40920;BME280;26652;50.280;19.026;2022-09-21T07:24:02;98934.50;;;11.30;100.00
40920;BME280;26652;50.280;19.026;2022-09-21T07:26:14;98938.84;;;11.21;100.00
40920;BME280;26652;50.280;19.026;2022-09-21T07:28:22;98942.47;;;11.27;100.00
40920;BME280;26652;50.280;19.026;2022-09-21T07:30:31;98939.75;;;11.28;100.00
40920;BME280;26652;50.280;19.026;2022-09-21T07:32:40;98939.88;;;11.35;100.00
40920;BME280;26652;50.280;19.026;2022-09-21T07:34:52;98940.00;;;11.41;100.00
40920;BME280;26652;50.280;19.026;2022-09-21T07:37:00;98936.34;;;11.59;100.00
40920;BME280;26652;50.280;19.026;2022-09-21T07:39:09;98941.59;;;11.57;100.00
40920;BME280;26652;50.280;19.026;2022-09-21T07:41:30;98944.25;;;11.64;100.00
40920;BME280;26652;50.280;19.026;2022-09-21T07:43:35;98946.34;;;11.60;100.00
40920;BME280;26652;50.280;19.026;2022-09-21T07:45:51;98947.22;;;11.53;100.00
40920;BME280;26652;50.280;19.026;2022-09-21T07:48:07;98950.72;;;11.52;100.00
40920;BME280;26652;50.280;19.026;2022-09-21T07:50:14;98942.44;;;11.50;100.00
40920;BME280;26652;50.280;19.026;2022-09-21T07:52:20;98953.62;;;11.48;100.00
40920;BME280;26652;50.280;19.026;2022-09-21T07:54:31;98959.28;;;11.59;100.00
40920;BME280;26652;50.280;19.026;2022-09-21T07:56:50;98960.47;;;11.71;100.00
40920;BME280;26652;50.280;19.026;2022-09-21T07:59:15;98963.81;;;11.71;100.00
40920;BME280;26652;50.280;19.026;2022-09-21T08:01:31;98961.81;;;11.59;100.00
40920;BME280;26652;50.280;19.026;2022-09-21T08:03:36;98958.75;;;11.63;100.00
40920;BME280;26652;50.280;19.026;2022-09-21T08:05:42;98970.09;;;11.61;100.00
40920;BME280;26652;50.280;19.026;2022-09-21T08:07:56;98968.78;;;11.65;100.00
40920;BME280;26652;50.280;19.026;2022-09-21T08:10:05;98979.16;;;11.63;100.00
40920;BME280;26652;50.280;19.026;2022-09-21T08:12:20;98975.09;;;11.54;100.00
40920;BME280;26652;50.280;19.026;2022-09-21T08:14:50;98966.59;;;11.62;100.00
40920;BME280;26652;50.280;19.026;2022-09-21T08:17:21;98969.88;;;11.47;100.00
40920;BME280;26652;50.280;19.026;2022-09-21T08:19:30;98969.88;;;11.47;100.00
40920;BME280;26652;50.280;19.026;2022-09-21T08:21:39;98975.88;;;11.55;100.00
40920;BME280;26652;50.280;19.026;2022-09-21T08:23:51;98970.59;;;11.56;100.00
40920;BME280;26652;50.280;19.026;2022-09-21T08:26:03;98967.84;;;11.66;100.00
40920;BME280;26652;50.280;19.026;2022-09-21T08:28:11;98972.37;;;11.78;100.00
40920;BME280;26652;50.280;19.026;2022-09-21T08:30:23;98977.53;;;11.70;100.00
40920;BME280;26652;50.280;19.026;2022-09-21T08:32:41;98975.75;;;11.71;100.00
40920;BME280;26652;50.280;19.026;2022-09-21T08:34:57;98979.00;;;11.88;100.00
40920;BME280;26652;50.280;19.026;2022-09-21T08:37:16;98983.03;;;11.82;100.00
40920;BME280;26652;50.280;19.026;2022-09-21T08:39:26;98985.31;;;11.77;100.00
40920;BME280;26652;50.280;19.026;2022-09-21T08:44:20;98987.19;;;11.83;100.00
40920;BME280;26652;50.280;19.026;2022-09-21T08:46:29;98981.91;;;11.85;100.00
40920;BME280;26652;50.280;19.026;2022-09-21T08:48:41;98982.75;;;11.77;100.00
40920;BME280;26652;50.280;19.026;2022-09-21T08:50:59;98983.84;;;11.83;100.00
40920;BME280;26652;50.280;19.026;2022-09-21T08:53:10;98975.38;;;11.82;100.00
40920;BME280;26652;50.280;19.026;2022-09-21T08:55:20;98982.59;;;11.78;100.00
40920;BME280;26652;50.280;19.026;2022-09-21T08:57:37;98981.63;;;11.79;100.00
40920;BME280;26652;50.280;19.026;2022-09-21T08:59:47;98982.59;;;11.78;100.00
40920;BME280;26652;50.280;19.026;2022-09-21T09:02:01;98983.22;;;11.81;100.00
40920;BME280;26652;50.280;19.026;2022-09-21T09:04:37;98978.84;;;11.89;100.00
40920;BME280;26652;50.280;19.026;2022-09-21T09:07:08;98983.00;;;12.05;100.00
40920;BME280;26652;50.280;19.026;2022-09-21T09:12:16;98980.50;;;12.34;100.00
40920;BME280;26652;50.280;19.026;2022-09-21T09:19:44;98983.69;;;12.36;100.00
40920;BME280;26652;50.280;19.026;2022-09-21T09:21:52;98986.69;;;12.40;100.00
40920;BME280;26652;50.280;19.026;2022-09-21T09:24:10;98981.47;;;12.48;100.00
40920;BME280;26652;50.280;19.026;2022-09-21T09:26:48;98979.97;;;12.54;100.00
40920;BME280;26652;50.280;19.026;2022-09-21T09:28:59;98984.41;;;12.45;100.00
40920;BME280;26652;50.280;19.026;2022-09-21T09:31:34;98988.53;;;12.46;100.00
40920;BME280;26652;50.280;19.026;2022-09-21T09:36:20;98988.16;;;12.49;100.00
40920;BME280;26652;50.280;19.026;2022-09-21T09:38:55;98988.84;;;12.58;100.00
40920;BME280;26652;50.280;19.026;2022-09-21T09:51:32;98986.47;;;12.86;100.00
40920;BME280;26652;50.280;19.026;2022-09-21T09:53:42;98984.09;;;12.84;100.00
40920;BME280;26652;50.280;19.026;2022-09-21T09:55:55;98988.94;;;12.79;100.00
40920;BME280;26652;50.280;19.026;2022-09-21T09:58:05;98987.72;;;12.75;100.00
40920;BME280;26652;50.280;19.026;2022-09-21T10:00:17;98980.50;;;12.64;99.92
40920;BME280;26652;50.280;19.026;2022-09-21T10:02:28;98988.59;;;12.82;98.82
40920;BME280;26652;50.280;19.026;2022-09-21T10:04:59;98982.69;;;12.82;97.89
40920;BME280;26652;50.280;19.026;2022-09-21T10:07:17;98982.13;;;13.01;97.72
40920;BME280;26652;50.280;19.026;2022-09-21T10:09:31;98991.19;;;13.03;96.04
40920;BME280;26652;50.280;19.026;2022-09-21T10:11:43;98987.25;;;13.01;95.60
40920;BME280;26652;50.280;19.026;2022-09-21T10:13:56;98980.53;;;13.00;95.56
40920;BME280;26652;50.280;19.026;2022-09-21T10:16:19;98979.81;;;13.21;97.12
40920;BME280;26652;50.280;19.026;2022-09-21T10:18:46;98984.03;;;13.28;93.54
40920;BME280;26652;50.280;19.026;2022-09-21T10:21:06;98973.34;;;13.39;94.54
40920;BME280;26652;50.280;19.026;2022-09-21T10:23:16;98981.31;;;13.51;93.19
40920;BME280;26652;50.280;19.026;2022-09-21T10:25:32;98972.03;;;13.71;95.38
40920;BME280;26652;50.280;19.026;2022-09-21T10:27:48;98982.13;;;13.80;92.49
40920;BME280;26652;50.280;19.026;2022-09-21T10:29:58;98979.03;;;13.84;89.79
40920;BME280;26652;50.280;19.026;2022-09-21T10:32:28;98979.41;;;13.81;90.00
40920;BME280;26652;50.280;19.026;2022-09-21T10:35:27;98981.47;;;13.92;89.97
40920;BME280;26652;50.280;19.026;2022-09-21T10:37:34;98981.03;;;13.89;86.48
40920;BME280;26652;50.280;19.026;2022-09-21T10:39:48;98983.34;;;13.84;87.81
40920;BME280;26652;50.280;19.026;2022-09-21T10:42:05;98978.47;;;13.89;86.58
40920;BME280;26652;50.280;19.026;2022-09-21T10:46:55;98974.34;;;13.88;86.17
40920;BME280;26652;50.280;19.026;2022-09-21T10:49:04;98972.56;;;13.88;85.93
40920;BME280;26652;50.280;19.026;2022-09-21T10:51:29;98983.28;;;13.77;85.20
40920;BME280;26652;50.280;19.026;2022-09-21T10:53:47;98975.56;;;13.70;85.29
40920;BME280;26652;50.280;19.026;2022-09-21T10:56:16;98976.78;;;13.74;86.14
40920;BME280;26652;50.280;19.026;2022-09-21T10:58:28;98975.81;;;13.54;84.76
40920;BME280;26652;50.280;19.026;2022-09-21T11:00:45;98975.31;;;13.65;86.28
40920;BME280;26652;50.280;19.026;2022-09-21T11:02:51;98969.72;;;13.77;87.69
40920;BME280;26652;50.280;19.026;2022-09-21T11:05:34;98968.50;;;13.72;86.00
40920;BME280;26652;50.280;19.026;2022-09-21T11:08:02;98980.91;;;13.75;86.88
40920;BME280;26652;50.280;19.026;2022-09-21T11:10:32;98974.34;;;13.66;87.19
40920;BME280;26652;50.280;19.026;2022-09-21T11:18:33;98972.50;;;13.82;85.87
40920;BME280;26652;50.280;19.026;2022-09-21T11:21:04;98969.38;;;14.07;85.92
40920;BME280;26652;50.280;19.026;2022-09-21T11:26:43;98967.03;;;14.40;85.87
40920;BME280;26652;50.280;19.026;2022-09-21T11:29:14;98959.66;;;14.65;85.05
40920;BME280;26652;50.280;19.026;2022-09-21T11:34:33;98965.72;;;14.51;83.07
40920;BME280;26652;50.280;19.026;2022-09-21T11:41:07;98970.47;;;14.54;81.91
40920;BME280;26652;50.280;19.026;2022-09-21T11:46:07;98962.97;;;14.59;83.94
40920;BME280;26652;50.280;19.026;2022-09-21T11:49:08;98965.91;;;14.50;80.60
40920;BME280;26652;50.280;19.026;2022-09-21T11:54:42;98961.78;;;14.49;82.07
40920;BME280;26652;50.280;19.026;2022-09-21T11:57:19;98956.84;;;14.47;81.22
40920;BME280;26652;50.280;19.026;2022-09-21T12:00:16;98968.72;;;14.55;81.40
40920;BME280;26652;50.280;19.026;2022-09-21T12:06:05;98969.28;;;14.50;80.44
40920;BME280;26652;50.280;19.026;2022-09-21T12:16:51;98954.69;;;14.57;79.47
40920;BME280;26652;50.280;19.026;2022-09-21T12:19:49;98950.97;;;14.60;80.01
40920;BME280;26652;50.280;19.026;2022-09-21T12:22:23;98955.91;;;14.61;79.64
40920;BME280;26652;50.280;19.026;2022-09-21T12:25:13;98943.09;;;14.61;79.97
40920;BME280;26652;50.280;19.026;2022-09-21T12:27:35;98941.19;;;14.77;81.78
40920;BME280;26652;50.280;19.026;2022-09-21T12:30:30;98943.03;;;15.02;78.54
40920;BME280;26652;50.280;19.026;2022-09-21T12:36:03;98944.47;;;15.18;78.00
40920;BME280;26652;50.280;19.026;2022-09-21T12:38:39;98935.44;;;15.42;76.44
40920;BME280;26652;50.280;19.026;2022-09-21T12:41:32;98933.06;;;15.54;75.53
40920;BME280;26652;50.280;19.026;2022-09-21T12:44:20;98929.31;;;15.96;76.96
40920;BME280;26652;50.280;19.026;2022-09-21T12:47:08;98931.28;;;16.14;75.43
40920;BME280;26652;50.280;19.026;2022-09-21T12:49:32;98920.97;;;16.27;74.77
40920;BME280;26652;50.280;19.026;2022-09-21T12:52:09;98928.06;;;16.38;73.09
40920;BME280;26652;50.280;19.026;2022-09-21T12:54:44;98919.91;;;16.48;72.81
40920;BME280;26652;50.280;19.026;2022-09-21T13:07:33;98914.44;;;16.82;68.88
40920;BME280;26652;50.280;19.026;2022-09-21T13:09:49;98922.47;;;16.99;68.66
40920;BME280;26652;50.280;19.026;2022-09-21T13:12:01;98922.19;;;17.14;66.95
40920;BME280;26652;50.280;19.026;2022-09-21T13:14:14;98917.69;;;17.34;68.06
40920;BME280;26652;50.280;19.026;2022-09-21T13:16:37;98913.88;;;17.12;66.32
40920;BME280;26652;50.280;19.026;2022-09-21T13:18:44;98921.44;;;17.07;66.50
40920;BME280;26652;50.280;19.026;2022-09-21T13:20:56;98909.59;;;16.99;66.21
40920;BME280;26652;50.280;19.026;2022-09-21T13:23:05;98912.06;;;16.81;67.22
40920;BME280;26652;50.280;19.026;2022-09-21T13:25:18;98916.28;;;16.68;67.46
40920;BME280;26652;50.280;19.026;2022-09-21T13:28:03;98915.94;;;16.52;68.05
40920;BME280;26652;50.280;19.026;2022-09-21T13:30:27;98914.97;;;16.46;70.50
40920;BME280;26652;50.280;19.026;2022-09-21T13:32:51;98910.87;;;16.32;71.01
40920;BME280;26652;50.280;19.026;2022-09-21T13:40:33;98899.66;;;16.13;70.11
40920;BME280;26652;50.280;19.026;2022-09-21T13:42:46;98905.16;;;16.30;70.49
40920;BME280;26652;50.280;19.026;2022-09-21T13:44:55;98901.38;;;16.39;69.44
40920;BME280;26652;50.280;19.026;2022-09-21T13:47:01;98905.16;;;16.30;70.74
40920;BME280;26652;50.280;19.026;2022-09-21T13:49:37;98896.03;;;16.34;70.82
40920;BME280;26652;50.280;19.026;2022-09-21T13:52:00;98896.84;;;16.34;69.47